createdAt,value
2018-08-12T00:02:17.419Z,100268.13
2018-08-12T00:04:53.862Z,100273.79
2018-08-12T00:07:27.242Z,100278.66
2018-08-12T00:10:00.445Z,100270.77
2018-08-12T00:12:32.500Z,100268.16
2018-08-12T00:15:07.306Z,100257.00
2018-08-12T00:17:38.446Z,100255.16
2018-08-12T00:20:14.298Z,100253.94
2018-08-12T00:22:47.133Z,100259.22
2018-08-12T00:25:20.197Z,100255.89
2018-08-12T00:27:51.285Z,100254.78
2018-08-12T00:30:32.064Z,100248.83
2018-08-12T00:33:03.541Z,100248.89
2018-08-12T00:35:35.999Z,100246.45
2018-08-12T00:38:07.228Z,100247.42
2018-08-12T00:40:39.897Z,100244.98
2018-08-12T00:43:10.904Z,100243.87
2018-08-12T00:45:42.352Z,100241.66
2018-08-12T00:48:13.415Z,100245.21
2018-08-12T00:50:47.461Z,100254.37
2018-08-12T00:53:19.268Z,100256.84
2018-08-12T00:55:51.373Z,100252.62
2018-08-12T00:58:22.537Z,100251.53
2018-08-12T01:00:56.113Z,100245.46
2018-08-12T01:03:27.302Z,100194.70
2018-08-12T01:05:58.401Z,100233.59
2018-08-12T01:08:29.476Z,100231.33
2018-08-12T01:11:01.146Z,100231.61
2018-08-12T01:13:33.237Z,100227.09
2018-08-12T01:16:04.634Z,100230.61
2018-08-12T01:18:36.378Z,100225.53
2018-08-12T01:21:08.365Z,100216.95
2018-08-12T01:23:39.425Z,100216.87
2018-08-12T01:26:10.604Z,100220.92
2018-08-12T01:28:41.773Z,100228.27
2018-08-12T01:31:12.830Z,100228.02
2018-08-12T01:33:43.388Z,100226.77
2018-08-12T01:36:15.148Z,100224.63
2018-08-12T01:38:46.261Z,100227.34
2018-08-12T01:41:17.650Z,100223.70
2018-08-12T01:43:49.464Z,100230.70
2018-08-12T01:46:20.549Z,100225.84
2018-08-12T01:48:54.462Z,100230.97
2018-08-12T01:51:26.925Z,100233.52
2018-08-12T01:53:58.789Z,100233.94
2018-08-12T01:56:29.836Z,100236.84
2018-08-12T01:59:01.315Z,100214.53
2018-08-12T02:01:32.434Z,100230.63
2018-08-12T02:04:04.753Z,100230.41
2018-08-12T02:06:36.626Z,100230.95
2018-08-12T02:09:12.144Z,100225.03
2018-08-12T02:11:43.421Z,100229.28
2018-08-12T02:14:13.735Z,100221.31
2018-08-12T02:16:45.055Z,100219.73
2018-08-12T02:19:16.413Z,100123.50
2018-08-12T02:21:46.650Z,100220.27
2018-08-12T02:24:18.185Z,100212.36
2018-08-12T02:26:49.596Z,100217.67
2018-08-12T02:29:19.888Z,100208.70
2018-08-12T02:31:50.992Z,100205.48
2018-08-12T02:34:22.513Z,100188.69
2018-08-12T02:36:52.773Z,100197.81
2018-08-12T02:39:23.860Z,100187.20
2018-08-12T02:41:55.194Z,100184.54
2018-08-12T02:44:26.222Z,100193.39
2018-08-12T02:46:57.752Z,100196.84
2018-08-12T02:49:29.637Z,100193.84
2018-08-12T02:52:00.738Z,100148.92
2018-08-12T02:54:31.817Z,100185.50
2018-08-12T02:57:02.402Z,100182.38
2018-08-12T02:59:33.510Z,100175.83
2018-08-12T03:02:04.661Z,100173.77
2018-08-12T03:04:37.989Z,100167.31
2018-08-12T03:07:08.229Z,100173.74
2018-08-12T03:09:39.736Z,100177.79
2018-08-12T03:12:10.807Z,100176.56
2018-08-12T03:14:41.852Z,100176.86
2018-08-12T03:17:12.922Z,100152.27
2018-08-12T03:19:44.058Z,100164.00
2018-08-12T03:22:15.265Z,100154.09
2018-08-12T03:24:46.573Z,100154.52
2018-08-12T03:27:17.631Z,100152.75
2018-08-12T03:29:48.672Z,100153.91
2018-08-12T03:32:20.707Z,100154.56
2018-08-12T03:34:52.665Z,100151.44
2018-08-12T03:37:23.778Z,100150.28
2018-08-12T03:39:54.919Z,100151.65
2018-08-12T03:42:26.057Z,100148.11
2018-08-12T03:44:57.178Z,100144.78
2018-08-12T03:47:28.217Z,100145.50
2018-08-12T03:49:59.716Z,100143.22
2018-08-12T03:52:30.747Z,100137.73
2018-08-12T03:55:01.884Z,100139.49
2018-08-12T03:57:33.734Z,100134.52
2018-08-12T04:00:21.506Z,100136.91
2018-08-12T04:02:53.594Z,100108.97
2018-08-12T04:05:25.080Z,100141.27
2018-08-12T04:07:56.125Z,100141.67
2018-08-12T04:10:26.382Z,100130.12
2018-08-12T04:12:57.445Z,100131.87
2018-08-12T04:15:28.548Z,100136.47
2018-08-12T04:17:59.630Z,100135.73
2018-08-12T04:20:30.724Z,100142.37
2018-08-12T04:23:03.542Z,100141.31
2018-08-12T04:25:34.682Z,100139.69
2018-08-12T04:28:06.549Z,100142.08
2018-08-12T04:30:37.708Z,100147.27
2018-08-12T04:33:07.894Z,100142.09
2018-08-12T04:35:38.940Z,100135.02
2018-08-12T04:38:09.981Z,100129.52
2018-08-12T04:40:40.256Z,100125.52
2018-08-12T04:43:11.350Z,100122.40
2018-08-12T04:45:42.406Z,100122.63
2018-08-12T04:48:13.487Z,100126.23
2018-08-12T04:50:44.856Z,100130.22
2018-08-12T04:53:15.938Z,100124.06
2018-08-12T04:55:46.215Z,100125.63
2018-08-12T04:58:17.296Z,100125.67
2018-08-12T05:00:48.456Z,100123.08
2018-08-12T05:03:18.770Z,100128.48
2018-08-12T05:05:49.850Z,100132.08
2018-08-12T05:08:22.918Z,100127.84
2018-08-12T05:10:53.580Z,100126.70
2018-08-12T05:13:23.817Z,100122.70
2018-08-12T05:15:54.039Z,100107.66
2018-08-12T05:18:25.596Z,100130.41
2018-08-12T05:20:55.813Z,100125.69
2018-08-12T05:23:26.502Z,100116.25
2018-08-12T05:25:57.690Z,100132.13
2018-08-12T05:28:29.061Z,100129.13
2018-08-12T05:31:00.408Z,100125.13
2018-08-12T05:33:30.620Z,100128.45
2018-08-12T05:36:00.922Z,100120.36
2018-08-12T05:38:33.888Z,100123.47
2018-08-12T05:41:05.028Z,100114.15
2018-08-12T05:43:36.611Z,100117.31
2018-08-12T05:46:06.875Z,100121.55
2018-08-12T05:48:37.934Z,100128.44
2018-08-12T05:51:09.513Z,100112.31
2018-08-12T05:53:40.786Z,100117.05
2018-08-12T05:56:10.927Z,100122.72
2018-08-12T05:58:43.278Z,100110.48
2018-08-12T06:01:13.494Z,100105.45
2018-08-12T06:03:44.903Z,100103.58
2018-08-12T06:06:16.270Z,100113.77
2018-08-12T06:08:47.345Z,100108.54
2018-08-12T06:11:17.815Z,100096.60
2018-08-12T06:13:48.609Z,100113.34
2018-08-12T06:16:18.918Z,100118.28
2018-08-12T06:18:49.960Z,100119.98
2018-08-12T06:21:20.540Z,100119.26
2018-08-12T06:23:51.229Z,100111.34
2018-08-12T06:26:22.494Z,100103.30
2018-08-12T06:28:52.733Z,100101.68
2018-08-12T06:31:23.840Z,100099.24
2018-08-12T06:33:55.218Z,100091.30
2018-08-12T06:36:26.280Z,100096.51
2018-08-12T06:38:57.287Z,100096.77
2018-08-12T06:41:28.302Z,100092.11
2018-08-12T06:43:59.756Z,100097.87
2018-08-12T06:46:30.902Z,100108.58
2018-08-12T06:49:02.372Z,100107.22
2018-08-12T06:51:33.209Z,100095.42
2018-08-12T06:54:03.911Z,100099.50
2018-08-12T06:56:37.045Z,100102.81
2018-08-12T06:59:07.951Z,100102.84
2018-08-12T07:01:39.662Z,100101.17
2018-08-12T07:04:09.870Z,100104.45
2018-08-12T07:06:40.396Z,100099.09
2018-08-12T07:09:12.187Z,100102.11
2018-08-12T07:11:43.607Z,100096.34
2018-08-12T07:14:15.173Z,100096.82
2018-08-12T07:16:52.954Z,100096.54
2018-08-12T07:19:24.434Z,100085.78
2018-08-12T07:21:56.186Z,100086.89
2018-08-12T07:24:26.392Z,100094.63
2018-08-12T07:26:57.488Z,100045.83
2018-08-12T07:29:28.570Z,100081.79
2018-08-12T07:31:59.680Z,100084.87
2018-08-12T07:34:30.748Z,100078.41
2018-08-12T07:37:02.800Z,100072.17
2018-08-12T07:39:33.862Z,100066.45
2018-08-12T07:42:04.097Z,100070.27
2018-08-12T07:44:35.308Z,100070.84
2018-08-12T07:47:06.405Z,100072.69
2018-08-12T07:49:38.621Z,100062.50
2018-08-12T07:52:09.784Z,100065.14
2018-08-12T07:54:42.866Z,100062.89
2018-08-12T07:57:14.832Z,100061.85
2018-08-12T07:59:46.053Z,100048.92
2018-08-12T08:02:17.313Z,100057.65
2018-08-12T08:04:50.135Z,100052.34
2018-08-12T08:07:21.219Z,100053.23
2018-08-12T08:09:52.329Z,100047.33
2018-08-12T08:12:24.458Z,100044.66
2018-08-12T08:14:55.527Z,100049.37
2018-08-12T08:17:27.663Z,100051.02
2018-08-12T08:19:58.786Z,100055.37
2018-08-12T08:22:29.965Z,100049.37
2018-08-12T08:25:02.696Z,100047.02
2018-08-12T08:27:33.759Z,100047.83
2018-08-12T08:30:07.383Z,100052.39
2018-08-12T08:32:40.635Z,100047.80
2018-08-12T08:35:12.479Z,100055.16
2018-08-12T08:37:44.621Z,100047.25
2018-08-12T08:40:18.402Z,100049.26
2018-08-12T08:42:50.092Z,100036.20
2018-08-12T08:47:59.155Z,100039.66
2018-08-12T08:50:30.552Z,100034.25
2018-08-12T08:53:01.802Z,100037.13
2018-08-12T08:55:32.951Z,100031.81
2018-08-12T08:58:04.272Z,100027.55
2018-08-12T09:00:36.448Z,100031.79
2018-08-12T09:03:08.443Z,100026.85
2018-08-12T09:05:39.627Z,100027.16
2018-08-12T09:08:10.859Z,100022.57
2018-08-12T09:10:43.598Z,100023.11
2018-08-12T09:13:22.096Z,100017.77
2018-08-12T09:15:56.101Z,100020.62
2018-08-12T09:18:28.834Z,100017.36
2018-08-12T09:21:00.341Z,100014.19
2018-08-12T09:23:41.448Z,100010.82
2018-08-12T09:26:13.131Z,100010.51
2018-08-12T09:28:44.162Z,100004.78
2018-08-12T09:31:15.477Z,99997.25
2018-08-12T09:33:46.547Z,99998.34
2018-08-12T09:36:19.813Z,99990.73
2018-08-12T09:38:51.833Z,99991.27
2018-08-12T09:43:51.697Z,99984.45
2018-08-12T09:46:22.758Z,99984.58
2018-08-12T09:48:54.450Z,99972.42
2018-08-12T09:51:27.908Z,99972.03
2018-08-12T09:54:01.622Z,99968.53
2018-08-12T09:56:33.109Z,99967.41
2018-08-12T09:59:05.237Z,99965.70
2018-08-12T10:01:36.776Z,99961.05
2018-08-12T10:04:10.635Z,99946.80
2018-08-12T10:06:42.866Z,99951.06
2018-08-12T10:09:14.035Z,99946.09
2018-08-12T10:11:45.201Z,99949.91
2018-08-12T10:14:17.681Z,99928.69
2018-08-12T10:16:51.689Z,99941.73
2018-08-12T10:19:24.268Z,99944.02
2018-08-12T10:21:56.578Z,99936.43
2018-08-12T10:24:34.391Z,99940.58
2018-08-12T10:27:05.503Z,99934.55
2018-08-12T10:29:37.545Z,99927.55
2018-08-12T10:32:09.149Z,99935.25
2018-08-12T10:34:42.905Z,99924.56
2018-08-12T10:37:15.408Z,99923.80
2018-08-12T10:39:46.558Z,99921.79
2018-08-12T10:42:18.929Z,99920.81
2018-08-12T10:44:54.467Z,99915.36
2018-08-12T10:47:26.311Z,99910.54
2018-08-12T10:50:21.368Z,99909.54
2018-08-12T10:52:54.426Z,99908.77
2018-08-12T10:55:26.083Z,99906.86
2018-08-12T10:57:57.841Z,99898.64
2018-08-12T11:00:33.579Z,99897.17
2018-08-12T11:03:05.598Z,99900.83
2018-08-12T11:05:41.619Z,99896.67
2018-08-12T11:08:15.179Z,99893.98
2018-08-12T11:10:46.690Z,99884.00
2018-08-12T11:13:21.117Z,99886.64
2018-08-12T11:15:56.586Z,99881.15
2018-08-12T11:18:28.540Z,99879.08
2018-08-12T11:20:59.703Z,99879.97
2018-08-12T11:23:31.805Z,99874.58
2018-08-12T11:26:04.051Z,99864.73
2018-08-12T11:28:37.884Z,99869.75
2018-08-12T11:31:09.484Z,99852.78
2018-08-12T11:33:42.193Z,99857.25
2018-08-12T11:36:14.694Z,99848.58
2018-08-12T11:38:48.644Z,99845.44
2018-08-12T11:41:21.728Z,99849.70
2018-08-12T11:43:55.207Z,99840.89
2018-08-12T11:46:27.850Z,99833.05
2018-08-12T11:49:00.960Z,99838.23
2018-08-12T11:51:32.578Z,99824.81
2018-08-12T11:54:08.019Z,99831.06
2018-08-12T11:56:45.784Z,99827.81
2018-08-12T11:59:17.785Z,99819.38
2018-08-12T12:01:50.791Z,99814.42
2018-08-12T12:04:21.925Z,99805.07
2018-08-12T12:06:55.267Z,99814.58
2018-08-12T12:12:10.094Z,99805.64
2018-08-12T12:14:43.645Z,99767.84
2018-08-12T12:17:14.709Z,99793.98
2018-08-12T12:19:47.659Z,99792.15
2018-08-12T12:25:17.449Z,99776.73
2018-08-12T12:27:49.604Z,99783.52
2018-08-12T12:30:25.046Z,99777.84
2018-08-12T12:32:56.401Z,99779.42
2018-08-12T12:35:28.739Z,99775.56
2018-08-12T12:38:00.028Z,99773.06
2018-08-12T12:40:32.796Z,99766.55
2018-08-12T12:43:05.988Z,99767.06
2018-08-12T12:45:38.619Z,99763.70
2018-08-12T12:48:10.458Z,99756.60
2018-08-12T12:50:44.657Z,99758.91
2018-08-12T12:53:19.895Z,99750.69
2018-08-12T12:55:51.045Z,99751.84
2018-08-12T12:58:22.334Z,99741.35
2018-08-12T13:00:54.389Z,99750.66
2018-08-12T13:03:26.369Z,99743.80
2018-08-12T13:05:57.819Z,99728.25
2018-08-12T13:08:31.124Z,99729.75
2018-08-12T13:11:02.775Z,99722.61
2018-08-12T13:13:37.409Z,99716.43
2018-08-12T13:16:10.220Z,99715.87
2018-08-12T13:18:41.802Z,99694.41
2018-08-12T13:21:13.911Z,99707.30
2018-08-12T13:23:46.680Z,99712.84
2018-08-12T13:26:20.787Z,99703.91
2018-08-12T13:28:51.927Z,99699.34
2018-08-12T13:31:24.548Z,99699.68
2018-08-12T13:33:58.349Z,99690.30
2018-08-12T13:36:31.373Z,99690.52
2018-08-12T13:39:06.605Z,99683.05
2018-08-12T13:41:38.591Z,99680.59
2018-08-12T13:44:14.618Z,99676.41
2018-08-12T13:46:47.598Z,99663.58
2018-08-12T13:49:22.567Z,99675.79
2018-08-12T13:51:59.155Z,99669.90
2018-08-12T13:54:31.885Z,99653.00
2018-08-12T13:57:04.500Z,99648.16
2018-08-12T13:59:35.820Z,99642.85
2018-08-12T14:02:08.494Z,99642.45
2018-08-12T14:04:41.749Z,99639.24
2018-08-12T14:07:14.557Z,99628.55
2018-08-12T14:09:47.039Z,99623.92
2018-08-12T14:12:20.869Z,99619.12
2018-08-12T14:14:52.725Z,99622.66
2018-08-12T14:17:24.619Z,99617.68
2018-08-12T14:19:56.561Z,99598.34
2018-08-12T14:22:27.630Z,99601.27
2018-08-12T14:25:02.473Z,99596.20
2018-08-12T14:27:33.602Z,99601.98
2018-08-12T14:30:08.333Z,99594.09
2018-08-12T14:32:40.117Z,99597.87
2018-08-12T14:35:14.413Z,99584.39
2018-08-12T14:37:46.702Z,99574.25
2018-08-12T14:40:18.418Z,99570.97
2018-08-12T14:42:49.521Z,99567.23
2018-08-12T14:45:37.486Z,99567.23
2018-08-12T14:48:11.121Z,99554.41
2018-08-12T14:50:42.239Z,99555.94
2018-08-12T14:53:16.614Z,99554.27
2018-08-12T14:55:50.091Z,99550.38
2018-08-12T14:58:25.627Z,99551.41
2018-08-12T15:00:57.673Z,99547.43
2018-08-12T15:03:30.578Z,99549.91
2018-08-12T15:06:12.924Z,99545.94
2018-08-12T15:08:44.266Z,99546.77
2018-08-12T15:11:17.480Z,99538.05
2018-08-12T15:13:50.452Z,99533.78
2018-08-12T15:16:23.299Z,99527.45
2018-08-12T15:18:54.293Z,99521.28
2018-08-12T15:21:28.077Z,99517.91
2018-08-12T15:24:00.792Z,99521.00
2018-08-12T15:26:32.184Z,99521.69
2018-08-12T15:29:06.956Z,99512.39
2018-08-12T15:31:40.355Z,99513.16
2018-08-12T15:34:13.807Z,99508.14
2018-08-12T15:36:45.658Z,99503.55
2018-08-12T15:39:17.774Z,99508.16
2018-08-12T15:41:49.740Z,99500.96
2018-08-12T15:44:22.110Z,99496.56
2018-08-12T15:46:54.649Z,99491.17
2018-08-12T15:49:25.984Z,99486.47
2018-08-12T15:51:57.059Z,99486.59
2018-08-12T15:54:28.072Z,99473.48
2018-08-12T15:57:01.972Z,99481.64
2018-08-12T15:59:33.741Z,99485.98
2018-08-12T16:02:05.408Z,99473.70
2018-08-12T16:04:36.482Z,99471.41
2018-08-12T16:07:10.425Z,99463.33
2018-08-12T16:09:42.718Z,99453.59
2018-08-12T16:12:14.111Z,99453.00
2018-08-12T16:14:45.923Z,99457.63
2018-08-12T16:17:18.161Z,99454.44
2018-08-12T16:19:49.229Z,99452.87
2018-08-12T16:22:20.491Z,99451.38
2018-08-12T16:24:51.737Z,99424.42
2018-08-12T16:27:22.782Z,99442.55
2018-08-12T16:29:56.429Z,99441.95
2018-08-12T16:32:29.192Z,99442.08
2018-08-12T16:35:02.191Z,99445.53
2018-08-12T16:37:33.248Z,99442.80
2018-08-12T16:40:05.006Z,99437.16
2018-08-12T16:42:37.161Z,99431.63
2018-08-12T16:45:12.825Z,99411.11
2018-08-12T16:47:46.569Z,99428.63
2018-08-12T16:50:17.663Z,99427.60
2018-08-12T16:52:48.698Z,99413.91
2018-08-12T16:55:21.777Z,99387.51
2018-08-12T16:57:53.378Z,99403.52
2018-08-12T17:00:25.475Z,99403.46
2018-08-12T17:02:56.554Z,99395.93
2018-08-12T17:05:27.606Z,99392.16
2018-08-12T17:07:58.928Z,99383.41
2018-08-12T17:10:30.842Z,99374.19
2018-08-12T17:13:01.928Z,99388.95
2018-08-12T17:15:33.039Z,99378.95
2018-08-12T17:18:05.378Z,99387.42
2018-08-12T17:20:38.070Z,99379.44
2018-08-12T17:23:10.374Z,99376.75
2018-08-12T17:25:44.937Z,99379.89
2018-08-12T17:28:16.070Z,99380.44
2018-08-12T17:30:47.591Z,99372.61
2018-08-12T17:33:22.064Z,99366.12
2018-08-12T17:35:53.409Z,99359.15
2018-08-12T17:38:24.755Z,99368.82
2018-08-12T17:40:57.736Z,99363.81
2018-08-12T17:43:30.005Z,99364.27
2018-08-12T17:46:01.268Z,99361.98
2018-08-12T17:48:32.442Z,99362.45
2018-08-12T17:51:03.540Z,99362.26
2018-08-12T17:53:35.930Z,99362.13
2018-08-12T17:56:07.921Z,99361.58
2018-08-12T17:58:39.814Z,99347.41
2018-08-12T18:01:11.747Z,99355.41
2018-08-12T18:03:45.070Z,99349.80
2018-08-12T18:06:16.769Z,99346.11
2018-08-12T18:08:47.855Z,99346.33
2018-08-12T18:11:19.555Z,99344.17
2018-08-12T18:13:51.058Z,99349.25
2018-08-12T18:16:23.038Z,99348.88
2018-08-12T18:18:56.459Z,99346.55
2018-08-12T18:21:27.621Z,99350.95
2018-08-12T18:23:58.718Z,99351.91
2018-08-12T18:26:30.642Z,99351.73
2018-08-12T18:29:02.426Z,99352.41
2018-08-12T18:31:36.738Z,99356.44
2018-08-12T18:34:08.750Z,99356.75
2018-08-12T18:36:40.272Z,99350.66
2018-08-12T18:39:13.806Z,99346.37
2018-08-12T18:41:44.932Z,99349.59
2018-08-12T18:44:17.167Z,99336.48
2018-08-12T18:46:48.842Z,99350.33
2018-08-12T18:49:20.850Z,99351.13
2018-08-12T18:51:53.010Z,99332.45
2018-08-12T18:54:24.047Z,99349.23
2018-08-12T18:56:56.338Z,99345.89
2018-08-12T18:59:32.298Z,99342.47
2018-08-12T19:02:04.224Z,99349.42
2018-08-12T19:04:41.751Z,99345.06
2018-08-12T19:07:13.169Z,99347.70
2018-08-12T19:09:46.405Z,99345.39
2018-08-12T19:12:18.441Z,99342.66
2018-08-12T19:14:50.517Z,99340.10
2018-08-12T19:17:26.105Z,99347.49
2018-08-12T19:20:00.596Z,99347.92
2018-08-12T19:22:34.865Z,99345.83
2018-08-12T19:25:07.762Z,99342.86
2018-08-12T19:27:40.924Z,99345.11
2018-08-12T19:30:15.452Z,99349.23
2018-08-12T19:32:47.415Z,99346.53
2018-08-12T19:35:23.927Z,99340.88
2018-08-12T19:38:00.541Z,99340.83
2018-08-12T19:40:31.651Z,99338.55
2018-08-12T19:43:03.954Z,99338.32
2018-08-12T19:45:35.168Z,99334.98
2018-08-12T19:48:06.662Z,99341.00
2018-08-12T19:50:40.498Z,99317.11
2018-08-12T19:53:11.761Z,99335.91
2018-08-12T19:55:45.741Z,99334.00
2018-08-12T19:58:16.843Z,99338.63
2018-08-12T20:00:48.180Z,99338.63
2018-08-12T20:03:19.383Z,99337.37
2018-08-12T20:05:52.792Z,99330.00
2018-08-12T20:08:27.009Z,99333.63
2018-08-12T20:10:58.992Z,99327.19
2018-08-12T20:13:29.935Z,99328.80
2018-08-12T20:16:02.757Z,99325.61
2018-08-12T20:18:36.876Z,99315.58
2018-08-12T20:21:08.351Z,99323.63
2018-08-12T20:23:40.213Z,99328.34
2018-08-12T20:26:11.873Z,99326.70
2018-08-12T20:28:45.087Z,99326.67
2018-08-12T20:31:18.428Z,99323.71
2018-08-12T20:33:51.430Z,99325.66
2018-08-12T20:36:23.261Z,99318.07
2018-08-12T20:38:56.172Z,99315.88
2018-08-12T20:41:27.562Z,99312.10
2018-08-12T20:43:58.629Z,99317.89
2018-08-12T20:46:31.677Z,99318.24
2018-08-12T20:49:02.854Z,99317.66
2018-08-12T20:51:36.910Z,99317.17
2018-08-12T20:54:10.196Z,99311.15
2018-08-12T20:56:41.353Z,99308.80
2018-08-12T20:59:14.524Z,99306.41
2018-08-12T21:01:49.095Z,99308.84
2018-08-12T21:04:22.068Z,99311.64
2018-08-12T21:06:54.198Z,99300.41
2018-08-12T21:09:25.769Z,99297.97
2018-08-12T21:11:57.554Z,99288.69
2018-08-12T21:14:29.208Z,99288.11
2018-08-12T21:17:01.368Z,99292.78
2018-08-12T21:19:34.457Z,99287.03
2018-08-12T21:22:04.805Z,99287.95
2018-08-12T21:24:36.877Z,99287.44
2018-08-12T21:27:09.530Z,99289.06
2018-08-12T21:29:41.689Z,99282.16
2018-08-12T21:32:12.854Z,99285.52
2018-08-12T21:34:44.937Z,99285.55
2018-08-12T21:37:16.933Z,99292.05
2018-08-12T21:39:47.972Z,99284.41
2018-08-12T21:42:21.514Z,99286.34
2018-08-12T21:44:54.583Z,99277.92
2018-08-12T21:47:27.618Z,99280.48
2018-08-12T21:49:58.695Z,99280.05
2018-08-12T21:52:30.442Z,99279.28
2018-08-12T21:55:02.307Z,99272.77
2018-08-12T21:57:35.451Z,99272.77
2018-08-12T22:00:16.624Z,99277.16
2018-08-12T22:02:48.426Z,99277.45
2018-08-12T22:05:21.415Z,99271.17
2018-08-12T22:07:58.064Z,99266.25
2018-08-12T22:10:29.290Z,99279.34
2018-08-12T22:13:00.590Z,99271.42
2018-08-12T22:15:31.994Z,99277.45
2018-08-12T22:18:03.252Z,99275.55
2018-08-12T22:20:33.780Z,99277.16
2018-08-12T22:23:04.707Z,99277.72
2018-08-12T22:25:36.354Z,99278.27
2018-08-12T22:28:08.421Z,99278.02
2018-08-12T22:30:39.613Z,99278.53
2018-08-12T22:33:10.697Z,99280.19
2018-08-12T22:35:42.272Z,99273.88
2018-08-12T22:38:14.613Z,99267.56
2018-08-12T22:40:46.764Z,99270.54
2018-08-12T22:43:18.399Z,99264.27
2018-08-12T22:45:51.965Z,99266.51
2018-08-12T22:48:24.340Z,99263.80
2018-08-12T22:50:56.254Z,99272.00
2018-08-12T22:53:27.196Z,99261.91
2018-08-12T22:55:59.583Z,99255.61
2018-08-12T22:58:31.753Z,99268.98
2018-08-12T23:01:04.524Z,99259.15
2018-08-12T23:03:37.210Z,99262.42
2018-08-12T23:06:08.282Z,99259.73
2018-08-12T23:08:40.507Z,99243.11
2018-08-12T23:11:13.640Z,99252.09
2018-08-12T23:13:44.845Z,99244.99
2018-08-12T23:16:29.071Z,99248.02
2018-08-12T23:19:01.779Z,99253.98
2018-08-12T23:21:34.667Z,99242.56
2018-08-12T23:24:06.316Z,99212.61
2018-08-12T23:26:38.139Z,99240.92
2018-08-12T23:29:08.702Z,99238.77
2018-08-12T23:31:40.594Z,99234.66
2018-08-12T23:34:12.084Z,99224.56
2018-08-12T23:36:43.205Z,99226.22
2018-08-12T23:39:14.302Z,99225.67
2018-08-12T23:41:44.588Z,99224.88
2018-08-12T23:44:15.143Z,99213.68
2018-08-12T23:46:46.201Z,99223.77
2018-08-12T23:49:17.255Z,99221.33
2018-08-12T23:51:48.334Z,99203.30
2018-08-12T23:54:19.377Z,99209.59
2018-08-12T23:56:49.603Z,99204.68
2018-08-12T23:59:20.677Z,99201.95
